sensor_id;sensor_type;location;lat;lon;timestamp;P1;durP1;ratioP1;P2;durP2;ratioP2
55053;SDS011;40954;45.668;18.980;2023-01-05T00:02:23;36.25;;;25.83;;
55053;SDS011;40954;45.668;18.980;2023-01-05T00:04:49;40.10;;;27.33;;
55053;SDS011;40954;45.668;18.980;2023-01-05T00:07:15;42.55;;;28.58;;
55053;SDS011;40954;45.668;18.980;2023-01-05T00:09:41;43.63;;;31.95;;
55053;SDS011;40954;45.668;18.980;2023-01-05T00:12:08;43.22;;;29.63;;
55053;SDS011;40954;45.668;18.980;2023-01-05T00:14:52;42.33;;;29.02;;
55053;SDS011;40954;45.668;18.980;2023-01-05T00:17:50;40.30;;;27.70;;
55053;SDS011;40954;45.668;18.980;2023-01-05T00:20:35;43.90;;;30.92;;
55053;SDS011;40954;45.668;18.980;2023-01-05T00:23:20;43.67;;;30.35;;
55053;SDS011;40954;45.668;18.980;2023-01-05T00:25:46;40.75;;;29.92;;
55053;SDS011;40954;45.668;18.980;2023-01-05T00:28:12;43.92;;;30.80;;
55053;SDS011;40954;45.668;18.980;2023-01-05T00:30:42;43.55;;;29.92;;
55053;SDS011;40954;45.668;18.980;2023-01-05T00:33:09;43.65;;;31.25;;
55053;SDS011;40954;45.668;18.980;2023-01-05T00:35:35;44.90;;;31.25;;
55053;SDS011;40954;45.668;18.980;2023-01-05T00:38:03;44.95;;;30.85;;
55053;SDS011;40954;45.668;18.980;2023-01-05T00:40:29;47.47;;;32.13;;
55053;SDS011;40954;45.668;18.980;2023-01-05T00:42:55;48.05;;;32.55;;
55053;SDS011;40954;45.668;18.980;2023-01-05T00:45:21;44.70;;;33.45;;
55053;SDS011;40954;45.668;18.980;2023-01-05T00:47:47;45.95;;;32.63;;
55053;SDS011;40954;45.668;18.980;2023-01-05T00:50:16;43.92;;;32.40;;
55053;SDS011;40954;45.668;18.980;2023-01-05T00:52:42;41.20;;;30.98;;
55053;SDS011;40954;45.668;18.980;2023-01-05T00:55:08;48.00;;;31.55;;
55053;SDS011;40954;45.668;18.980;2023-01-05T00:57:34;45.35;;;32.78;;
55053;SDS011;40954;45.668;18.980;2023-01-05T01:00:01;46.47;;;31.90;;
55053;SDS011;40954;45.668;18.980;2023-01-05T01:02:27;47.10;;;33.15;;
55053;SDS011;40954;45.668;18.980;2023-01-05T01:04:53;48.22;;;32.50;;
55053;SDS011;40954;45.668;18.980;2023-01-05T01:07:19;50.40;;;35.10;;
55053;SDS011;40954;45.668;18.980;2023-01-05T01:09:45;46.45;;;33.13;;
55053;SDS011;40954;45.668;18.980;2023-01-05T01:12:11;49.58;;;34.25;;
55053;SDS011;40954;45.668;18.980;2023-01-05T01:14:37;50.38;;;33.60;;
55053;SDS011;40954;45.668;18.980;2023-01-05T01:17:03;47.72;;;32.97;;
55053;SDS011;40954;45.668;18.980;2023-01-05T01:19:29;41.70;;;30.15;;
55053;SDS011;40954;45.668;18.980;2023-01-05T01:21:56;46.38;;;32.78;;
55053;SDS011;40954;45.668;18.980;2023-01-05T01:24:26;48.45;;;32.83;;
55053;SDS011;40954;45.668;18.980;2023-01-05T01:26:52;43.53;;;31.45;;
55053;SDS011;40954;45.668;18.980;2023-01-05T01:29:19;47.75;;;32.40;;
55053;SDS011;40954;45.668;18.980;2023-01-05T01:31:46;45.40;;;32.92;;
55053;SDS011;40954;45.668;18.980;2023-01-05T01:34:12;46.78;;;32.30;;
55053;SDS011;40954;45.668;18.980;2023-01-05T01:36:38;47.25;;;31.83;;
55053;SDS011;40954;45.668;18.980;2023-01-05T01:39:04;45.30;;;31.27;;
55053;SDS011;40954;45.668;18.980;2023-01-05T01:41:30;44.78;;;32.30;;
55053;SDS011;40954;45.668;18.980;2023-01-05T01:43:56;46.65;;;32.42;;
55053;SDS011;40954;45.668;18.980;2023-01-05T01:46:23;52.20;;;34.72;;
55053;SDS011;40954;45.668;18.980;2023-01-05T01:49:00;51.38;;;35.42;;
55053;SDS011;40954;45.668;18.980;2023-01-05T01:51:29;57.40;;;36.40;;
55053;SDS011;40954;45.668;18.980;2023-01-05T01:53:58;51.33;;;34.47;;
55053;SDS011;40954;45.668;18.980;2023-01-05T01:56:25;64.45;;;36.42;;
55053;SDS011;40954;45.668;18.980;2023-01-05T01:58:51;53.58;;;35.97;;
55053;SDS011;40954;45.668;18.980;2023-01-05T02:01:18;57.00;;;37.72;;
55053;SDS011;40954;45.668;18.980;2023-01-05T02:03:44;64.22;;;36.88;;
55053;SDS011;40954;45.668;18.980;2023-01-05T02:06:10;56.75;;;35.95;;
55053;SDS011;40954;45.668;18.980;2023-01-05T02:08:36;56.53;;;35.58;;
55053;SDS011;40954;45.668;18.980;2023-01-05T02:16:21;55.75;;;36.78;;
55053;SDS011;40954;45.668;18.980;2023-01-05T02:21:53;60.95;;;38.45;;
55053;SDS011;40954;45.668;18.980;2023-01-05T02:27:03;52.08;;;35.90;;
55053;SDS011;40954;45.668;18.980;2023-01-05T02:29:45;48.45;;;34.47;;
55053;SDS011;40954;45.668;18.980;2023-01-05T02:37:58;52.95;;;37.25;;
55053;SDS011;40954;45.668;18.980;2023-01-05T02:40:28;52.88;;;36.42;;
55053;SDS011;40954;45.668;18.980;2023-01-05T02:42:56;52.65;;;35.03;;
55053;SDS011;40954;45.668;18.980;2023-01-05T02:45:23;49.58;;;34.72;;
55053;SDS011;40954;45.668;18.980;2023-01-05T02:47:49;54.55;;;37.55;;
55053;SDS011;40954;45.668;18.980;2023-01-05T02:53:05;51.83;;;35.63;;
55053;SDS011;40954;45.668;18.980;2023-01-05T02:58:03;57.28;;;37.15;;
55053;SDS011;40954;45.668;18.980;2023-01-05T03:00:35;52.05;;;36.70;;
55053;SDS011;40954;45.668;18.980;2023-01-05T03:05:30;55.30;;;36.83;;
55053;SDS011;40954;45.668;18.980;2023-01-05T03:07:57;66.35;;;40.15;;
55053;SDS011;40954;45.668;18.980;2023-01-05T03:10:32;61.70;;;39.47;;
55053;SDS011;40954;45.668;18.980;2023-01-05T03:13:19;62.97;;;39.70;;
55053;SDS011;40954;45.668;18.980;2023-01-05T03:16:05;63.70;;;39.17;;
55053;SDS011;40954;45.668;18.980;2023-01-05T03:18:32;57.60;;;38.13;;
55053;SDS011;40954;45.668;18.980;2023-01-05T03:21:23;61.05;;;41.15;;
55053;SDS011;40954;45.668;18.980;2023-01-05T03:23:49;55.17;;;37.20;;
55053;SDS011;40954;45.668;18.980;2023-01-05T03:26:34;57.80;;;36.90;;
55053;SDS011;40954;45.668;18.980;2023-01-05T03:29:20;54.08;;;36.25;;
55053;SDS011;40954;45.668;18.980;2023-01-05T03:32:11;55.65;;;37.75;;
55053;SDS011;40954;45.668;18.980;2023-01-05T03:40:25;58.22;;;37.30;;
55053;SDS011;40954;45.668;18.980;2023-01-05T03:42:53;45.60;;;30.77;;
55053;SDS011;40954;45.668;18.980;2023-01-05T03:45:19;56.50;;;37.00;;
55053;SDS011;40954;45.668;18.980;2023-01-05T03:47:46;49.50;;;37.47;;
55053;SDS011;40954;45.668;18.980;2023-01-05T03:50:13;59.28;;;40.15;;
55053;SDS011;40954;45.668;18.980;2023-01-05T03:52:39;59.45;;;38.85;;
55053;SDS011;40954;45.668;18.980;2023-01-05T03:55:05;57.72;;;39.58;;
55053;SDS011;40954;45.668;18.980;2023-01-05T03:57:31;56.80;;;38.90;;
55053;SDS011;40954;45.668;18.980;2023-01-05T03:59:58;59.15;;;41.90;;
55053;SDS011;40954;45.668;18.980;2023-01-05T04:02:24;56.90;;;39.42;;
55053;SDS011;40954;45.668;18.980;2023-01-05T04:04:50;55.15;;;40.20;;
55053;SDS011;40954;45.668;18.980;2023-01-05T04:07:16;64.05;;;39.30;;
55053;SDS011;40954;45.668;18.980;2023-01-05T04:09:42;63.47;;;41.38;;
55053;SDS011;40954;45.668;18.980;2023-01-05T04:12:08;61.50;;;42.10;;
55053;SDS011;40954;45.668;18.980;2023-01-05T04:14:34;65.47;;;43.92;;
55053;SDS011;40954;45.668;18.980;2023-01-05T04:16:59;62.42;;;41.63;;
55053;SDS011;40954;45.668;18.980;2023-01-05T04:19:26;66.80;;;42.60;;
55053;SDS011;40954;45.668;18.980;2023-01-05T04:21:52;64.25;;;42.00;;
55053;SDS011;40954;45.668;18.980;2023-01-05T04:24:18;59.20;;;41.55;;
55053;SDS011;40954;45.668;18.980;2023-01-05T04:26:44;62.10;;;41.58;;
55053;SDS011;40954;45.668;18.980;2023-01-05T04:29:10;58.40;;;41.35;;
55053;SDS011;40954;45.668;18.980;2023-01-05T04:31:36;56.83;;;41.53;;
55053;SDS011;40954;45.668;18.980;2023-01-05T04:34:02;61.25;;;41.50;;
55053;SDS011;40954;45.668;18.980;2023-01-05T04:36:28;56.55;;;39.53;;
55053;SDS011;40954;45.668;18.980;2023-01-05T04:38:54;64.93;;;40.40;;
55053;SDS011;40954;45.668;18.980;2023-01-05T04:41:20;65.00;;;41.78;;
55053;SDS011;40954;45.668;18.980;2023-01-05T04:43:46;56.40;;;40.10;;
55053;SDS011;40954;45.668;18.980;2023-01-05T04:46:12;65.90;;;42.45;;
55053;SDS011;40954;45.668;18.980;2023-01-05T04:48:38;64.72;;;42.35;;
55053;SDS011;40954;45.668;18.980;2023-01-05T04:51:04;60.83;;;41.17;;
55053;SDS011;40954;45.668;18.980;2023-01-05T04:53:30;63.10;;;42.75;;
55053;SDS011;40954;45.668;18.980;2023-01-05T04:55:57;58.33;;;40.38;;
55053;SDS011;40954;45.668;18.980;2023-01-05T04:58:23;62.28;;;42.95;;
55053;SDS011;40954;45.668;18.980;2023-01-05T05:00:49;64.68;;;42.83;;
55053;SDS011;40954;45.668;18.980;2023-01-05T05:03:15;67.63;;;42.88;;
55053;SDS011;40954;45.668;18.980;2023-01-05T05:05:41;66.70;;;43.97;;
55053;SDS011;40954;45.668;18.980;2023-01-05T05:08:07;68.97;;;43.75;;
55053;SDS011;40954;45.668;18.980;2023-01-05T05:10:33;63.53;;;41.78;;
55053;SDS011;40954;45.668;18.980;2023-01-05T05:12:59;64.28;;;41.15;;
55053;SDS011;40954;45.668;18.980;2023-01-05T05:15:25;67.82;;;44.45;;
55053;SDS011;40954;45.668;18.980;2023-01-05T05:17:51;67.47;;;44.17;;
55053;SDS011;40954;45.668;18.980;2023-01-05T05:20:17;63.63;;;43.95;;
55053;SDS011;40954;45.668;18.980;2023-01-05T05:22:43;67.38;;;47.22;;
55053;SDS011;40954;45.668;18.980;2023-01-05T05:25:10;68.15;;;45.08;;
55053;SDS011;40954;45.668;18.980;2023-01-05T05:27:36;68.30;;;45.58;;
55053;SDS011;40954;45.668;18.980;2023-01-05T05:30:02;69.70;;;44.38;;
55053;SDS011;40954;45.668;18.980;2023-01-05T05:32:28;68.93;;;44.55;;
55053;SDS011;40954;45.668;18.980;2023-01-05T05:34:54;62.83;;;43.75;;
55053;SDS011;40954;45.668;18.980;2023-01-05T05:37:20;70.53;;;47.03;;
55053;SDS011;40954;45.668;18.980;2023-01-05T05:39:46;86.07;;;51.50;;
55053;SDS011;40954;45.668;18.980;2023-01-05T05:42:12;101.55;;;64.68;;
55053;SDS011;40954;45.668;18.980;2023-01-05T05:44:38;102.88;;;66.35;;
55053;SDS011;40954;45.668;18.980;2023-01-05T05:47:04;105.10;;;66.53;;
55053;SDS011;40954;45.668;18.980;2023-01-05T05:49:30;101.15;;;64.35;;
55053;SDS011;40954;45.668;18.980;2023-01-05T05:51:56;76.25;;;49.60;;
55053;SDS011;40954;45.668;18.980;2023-01-05T05:54:22;77.82;;;51.63;;
55053;SDS011;40954;45.668;18.980;2023-01-05T05:56:48;73.55;;;47.05;;
55053;SDS011;40954;45.668;18.980;2023-01-05T05:59:14;69.97;;;46.72;;
55053;SDS011;40954;45.668;18.980;2023-01-05T06:01:40;70.97;;;46.20;;
55053;SDS011;40954;45.668;18.980;2023-01-05T06:04:06;77.15;;;48.15;;
55053;SDS011;40954;45.668;18.980;2023-01-05T06:06:32;68.63;;;45.88;;
55053;SDS011;40954;45.668;18.980;2023-01-05T06:08:58;69.82;;;44.50;;
55053;SDS011;40954;45.668;18.980;2023-01-05T06:11:24;68.93;;;44.25;;
55053;SDS011;40954;45.668;18.980;2023-01-05T06:13:50;58.97;;;42.47;;
55053;SDS011;40954;45.668;18.980;2023-01-05T06:16:16;65.47;;;46.05;;
55053;SDS011;40954;45.668;18.980;2023-01-05T06:18:42;61.63;;;41.33;;
55053;SDS011;40954;45.668;18.980;2023-01-05T06:21:08;64.13;;;44.47;;
55053;SDS011;40954;45.668;18.980;2023-01-05T06:23:34;62.95;;;42.58;;
55053;SDS011;40954;45.668;18.980;2023-01-05T06:26:00;64.80;;;46.03;;
55053;SDS011;40954;45.668;18.980;2023-01-05T06:28:26;66.05;;;48.58;;
55053;SDS011;40954;45.668;18.980;2023-01-05T06:30:52;70.03;;;46.03;;
55053;SDS011;40954;45.668;18.980;2023-01-05T06:33:18;71.65;;;48.63;;
55053;SDS011;40954;45.668;18.980;2023-01-05T06:35:44;71.80;;;47.50;;
55053;SDS011;40954;45.668;18.980;2023-01-05T06:38:10;71.97;;;50.67;;
55053;SDS011;40954;45.668;18.980;2023-01-05T06:40:37;64.40;;;45.78;;
55053;SDS011;40954;45.668;18.980;2023-01-05T06:43:04;67.57;;;44.35;;
55053;SDS011;40954;45.668;18.980;2023-01-05T06:45:30;67.63;;;46.47;;
55053;SDS011;40954;45.668;18.980;2023-01-05T06:47:56;60.13;;;43.28;;
55053;SDS011;40954;45.668;18.980;2023-01-05T06:50:23;71.28;;;46.65;;
55053;SDS011;40954;45.668;18.980;2023-01-05T06:52:49;70.32;;;45.40;;
55053;SDS011;40954;45.668;18.980;2023-01-05T06:55:15;60.65;;;40.78;;
55053;SDS011;40954;45.668;18.980;2023-01-05T06:57:41;61.50;;;41.75;;
55053;SDS011;40954;45.668;18.980;2023-01-05T07:00:08;64.95;;;43.90;;
55053;SDS011;40954;45.668;18.980;2023-01-05T07:02:34;69.07;;;45.78;;
55053;SDS011;40954;45.668;18.980;2023-01-05T07:05:00;57.28;;;40.78;;
55053;SDS011;40954;45.668;18.980;2023-01-05T07:07:26;62.85;;;42.78;;
55053;SDS011;40954;45.668;18.980;2023-01-05T07:09:52;56.67;;;39.83;;
55053;SDS011;40954;45.668;18.980;2023-01-05T07:12:18;67.75;;;46.22;;
55053;SDS011;40954;45.668;18.980;2023-01-05T07:14:44;61.30;;;42.67;;
55053;SDS011;40954;45.668;18.980;2023-01-05T07:17:10;62.63;;;41.53;;
55053;SDS011;40954;45.668;18.980;2023-01-05T07:19:37;69.90;;;45.92;;
55053;SDS011;40954;45.668;18.980;2023-01-05T07:22:03;61.03;;;42.15;;
55053;SDS011;40954;45.668;18.980;2023-01-05T07:24:29;62.72;;;41.67;;
55053;SDS011;40954;45.668;18.980;2023-01-05T07:26:56;64.38;;;42.47;;
55053;SDS011;40954;45.668;18.980;2023-01-05T07:29:22;60.65;;;40.70;;
55053;SDS011;40954;45.668;18.980;2023-01-05T07:31:48;57.40;;;39.22;;
55053;SDS011;40954;45.668;18.980;2023-01-05T07:34:16;55.72;;;39.17;;
55053;SDS011;40954;45.668;18.980;2023-01-05T07:36:42;59.47;;;41.30;;
55053;SDS011;40954;45.668;18.980;2023-01-05T07:39:08;70.18;;;47.53;;
55053;SDS011;40954;45.668;18.980;2023-01-05T07:41:34;70.72;;;47.92;;
55053;SDS011;40954;45.668;18.980;2023-01-05T07:44:00;57.38;;;39.28;;
55053;SDS011;40954;45.668;18.980;2023-01-05T07:46:26;64.45;;;43.05;;
55053;SDS011;40954;45.668;18.980;2023-01-05T07:48:52;61.92;;;42.53;;
55053;SDS011;40954;45.668;18.980;2023-01-05T07:51:19;90.13;;;50.88;;
55053;SDS011;40954;45.668;18.980;2023-01-05T07:53:46;93.22;;;50.67;;
55053;SDS011;40954;45.668;18.980;2023-01-05T07:56:12;96.65;;;53.97;;
55053;SDS011;40954;45.668;18.980;2023-01-05T07:58:38;87.18;;;50.70;;
55053;SDS011;40954;45.668;18.980;2023-01-05T08:01:05;58.13;;;41.50;;
55053;SDS011;40954;45.668;18.980;2023-01-05T08:03:31;49.88;;;35.25;;
55053;SDS011;40954;45.668;18.980;2023-01-05T08:05:57;47.75;;;33.92;;
55053;SDS011;40954;45.668;18.980;2023-01-05T08:08:27;51.72;;;33.72;;
55053;SDS011;40954;45.668;18.980;2023-01-05T08:10:53;49.17;;;34.80;;
55053;SDS011;40954;45.668;18.980;2023-01-05T08:13:20;62.70;;;45.83;;
55053;SDS011;40954;45.668;18.980;2023-01-05T08:16:04;44.22;;;32.30;;
55053;SDS011;40954;45.668;18.980;2023-01-05T08:18:30;41.85;;;32.08;;
55053;SDS011;40954;45.668;18.980;2023-01-05T08:20:58;60.28;;;41.53;;
55053;SDS011;40954;45.668;18.980;2023-01-05T08:23:25;47.35;;;33.78;;
55053;SDS011;40954;45.668;18.980;2023-01-05T08:25:52;53.78;;;36.50;;
55053;SDS011;40954;45.668;18.980;2023-01-05T08:28:18;45.75;;;31.02;;
55053;SDS011;40954;45.668;18.980;2023-01-05T08:30:44;52.63;;;38.78;;
55053;SDS011;40954;45.668;18.980;2023-01-05T08:33:10;58.95;;;39.92;;
55053;SDS011;40954;45.668;18.980;2023-01-05T08:35:39;54.22;;;37.20;;
55053;SDS011;40954;45.668;18.980;2023-01-05T08:38:06;51.55;;;38.42;;
55053;SDS011;40954;45.668;18.980;2023-01-05T08:40:32;52.50;;;35.85;;
55053;SDS011;40954;45.668;18.980;2023-01-05T08:42:58;52.83;;;36.00;;
55053;SDS011;40954;45.668;18.980;2023-01-05T08:45:24;48.50;;;35.95;;
55053;SDS011;40954;45.668;18.980;2023-01-05T08:47:50;49.20;;;34.53;;
55053;SDS011;40954;45.668;18.980;2023-01-05T08:50:16;46.67;;;31.95;;
55053;SDS011;40954;45.668;18.980;2023-01-05T08:52:42;47.10;;;31.67;;
55053;SDS011;40954;45.668;18.980;2023-01-05T08:55:08;42.65;;;29.80;;
55053;SDS011;40954;45.668;18.980;2023-01-05T08:57:34;55.03;;;41.53;;
55053;SDS011;40954;45.668;18.980;2023-01-05T09:00:00;46.28;;;33.45;;
55053;SDS011;40954;45.668;18.980;2023-01-05T09:02:26;48.22;;;31.63;;
55053;SDS011;40954;45.668;18.980;2023-01-05T09:04:52;41.38;;;28.65;;
55053;SDS011;40954;45.668;18.980;2023-01-05T09:07:18;41.17;;;28.45;;
55053;SDS011;40954;45.668;18.980;2023-01-05T09:09:46;33.58;;;26.27;;
55053;SDS011;40954;45.668;18.980;2023-01-05T09:12:12;31.02;;;24.25;;
55053;SDS011;40954;45.668;18.980;2023-01-05T09:14:38;37.25;;;25.98;;
55053;SDS011;40954;45.668;18.980;2023-01-05T09:17:04;35.45;;;24.77;;
55053;SDS011;40954;45.668;18.980;2023-01-05T09:19:30;30.90;;;23.50;;
55053;SDS011;40954;45.668;18.980;2023-01-05T09:21:56;34.28;;;25.52;;
55053;SDS011;40954;45.668;18.980;2023-01-05T09:24:22;37.13;;;27.40;;
55053;SDS011;40954;45.668;18.980;2023-01-05T09:26:48;40.85;;;29.70;;
55053;SDS011;40954;45.668;18.980;2023-01-05T09:29:14;37.60;;;26.70;;
55053;SDS011;40954;45.668;18.980;2023-01-05T09:31:41;34.45;;;26.63;;
55053;SDS011;40954;45.668;18.980;2023-01-05T09:34:07;38.08;;;26.27;;
55053;SDS011;40954;45.668;18.980;2023-01-05T09:36:33;38.47;;;29.10;;
55053;SDS011;40954;45.668;18.980;2023-01-05T09:38:59;36.58;;;26.55;;
55053;SDS011;40954;45.668;18.980;2023-01-05T09:43:52;36.92;;;25.52;;
55053;SDS011;40954;45.668;18.980;2023-01-05T09:46:21;47.45;;;33.38;;
55053;SDS011;40954;45.668;18.980;2023-01-05T09:48:55;29.63;;;21.85;;
55053;SDS011;40954;45.668;18.980;2023-01-05T09:51:22;31.25;;;23.13;;
55053;SDS011;40954;45.668;18.980;2023-01-05T09:53:48;29.15;;;20.17;;
55053;SDS011;40954;45.668;18.980;2023-01-05T09:58:43;22.73;;;16.80;;
55053;SDS011;40954;45.668;18.980;2023-01-05T10:01:11;24.33;;;17.52;;
55053;SDS011;40954;45.668;18.980;2023-01-05T10:03:43;36.85;;;21.15;;
55053;SDS011;40954;45.668;18.980;2023-01-05T10:06:12;19.77;;;16.02;;
55053;SDS011;40954;45.668;18.980;2023-01-05T10:08:39;27.17;;;19.52;;
55053;SDS011;40954;45.668;18.980;2023-01-05T10:11:17;28.27;;;18.83;;
55053;SDS011;40954;45.668;18.980;2023-01-05T10:14:11;23.67;;;16.83;;
55053;SDS011;40954;45.668;18.980;2023-01-05T10:16:39;36.95;;;21.92;;
55053;SDS011;40954;45.668;18.980;2023-01-05T10:19:17;25.33;;;16.55;;
55053;SDS011;40954;45.668;18.980;2023-01-05T10:26:57;20.77;;;14.60;;
55053;SDS011;40954;45.668;18.980;2023-01-05T10:29:32;10.60;;;8.73;;
55053;SDS011;40954;45.668;18.980;2023-01-05T10:32:08;19.05;;;13.13;;
55053;SDS011;40954;45.668;18.980;2023-01-05T10:34:51;10.32;;;8.25;;
55053;SDS011;40954;45.668;18.980;2023-01-05T10:45:02;19.13;;;12.70;;
55053;SDS011;40954;45.668;18.980;2023-01-05T10:47:29;18.83;;;13.35;;
55053;SDS011;40954;45.668;18.980;2023-01-05T10:49:56;15.23;;;11.25;;
55053;SDS011;40954;45.668;18.980;2023-01-05T10:52:22;17.75;;;13.88;;
55053;SDS011;40954;45.668;18.980;2023-01-05T10:54:50;19.75;;;13.32;;
55053;SDS011;40954;45.668;18.980;2023-01-05T10:59:57;22.45;;;14.98;;
55053;SDS011;40954;45.668;18.980;2023-01-05T11:02:24;17.75;;;13.43;;
55053;SDS011;40954;45.668;18.980;2023-01-05T11:04:51;19.23;;;11.73;;
55053;SDS011;40954;45.668;18.980;2023-01-05T11:07:17;23.00;;;15.60;;
55053;SDS011;40954;45.668;18.980;2023-01-05T11:09:43;22.30;;;13.90;;
55053;SDS011;40954;45.668;18.980;2023-01-05T11:12:18;18.50;;;11.43;;
55053;SDS011;40954;45.668;18.980;2023-01-05T11:14:47;13.57;;;11.13;;
55053;SDS011;40954;45.668;18.980;2023-01-05T11:17:18;19.65;;;13.75;;
55053;SDS011;40954;45.668;18.980;2023-01-05T11:19:46;21.90;;;15.88;;
55053;SDS011;40954;45.668;18.980;2023-01-05T11:22:28;17.77;;;13.35;;
55053;SDS011;40954;45.668;18.980;2023-01-05T11:25:02;10.48;;;8.48;;
55053;SDS011;40954;45.668;18.980;2023-01-05T11:27:37;13.07;;;8.93;;
55053;SDS011;40954;45.668;18.980;2023-01-05T11:32:39;11.45;;;9.40;;
55053;SDS011;40954;45.668;18.980;2023-01-05T11:35:14;11.07;;;8.35;;
55053;SDS011;40954;45.668;18.980;2023-01-05T11:37:42;10.68;;;8.70;;
55053;SDS011;40954;45.668;18.980;2023-01-05T11:40:13;11.75;;;8.60;;
55053;SDS011;40954;45.668;18.980;2023-01-05T11:42:40;11.57;;;8.63;;
55053;SDS011;40954;45.668;18.980;2023-01-05T11:45:20;9.45;;;7.88;;
55053;SDS011;40954;45.668;18.980;2023-01-05T11:47:49;13.47;;;9.70;;
55053;SDS011;40954;45.668;18.980;2023-01-05T11:50:20;12.60;;;10.95;;
55053;SDS011;40954;45.668;18.980;2023-01-05T11:52:52;8.40;;;7.50;;
55053;SDS011;40954;45.668;18.980;2023-01-05T11:57:49;8.77;;;7.40;;
55053;SDS011;40954;45.668;18.980;2023-01-05T12:00:33;14.02;;;11.07;;
55053;SDS011;40954;45.668;18.980;2023-01-05T12:03:06;15.60;;;10.75;;
55053;SDS011;40954;45.668;18.980;2023-01-05T12:05:45;11.00;;;7.60;;
55053;SDS011;40954;45.668;18.980;2023-01-05T12:08:14;10.20;;;8.30;;
55053;SDS011;40954;45.668;18.980;2023-01-05T12:16:05;10.38;;;9.00;;
55053;SDS011;40954;45.668;18.980;2023-01-05T12:21:36;11.07;;;8.20;;
55053;SDS011;40954;45.668;18.980;2023-01-05T12:40:25;14.90;;;9.80;;
55053;SDS011;40954;45.668;18.980;2023-01-05T12:45:49;13.82;;;10.35;;
55053;SDS011;40954;45.668;18.980;2023-01-05T12:47:59;14.18;;;8.98;;
55053;SDS011;40954;45.668;18.980;2023-01-05T12:52:56;9.98;;;7.88;;
55053;SDS011;40954;45.668;18.980;2023-01-05T12:55:28;11.77;;;8.55;;
55053;SDS011;40954;45.668;18.980;2023-01-05T12:57:58;16.17;;;11.73;;
55053;SDS011;40954;45.668;18.980;2023-01-05T13:00:27;12.63;;;9.65;;
55053;SDS011;40954;45.668;18.980;2023-01-05T13:03:02;11.40;;;10.18;;
55053;SDS011;40954;45.668;18.980;2023-01-05T13:05:31;11.18;;;9.20;;
55053;SDS011;40954;45.668;18.980;2023-01-05T13:08:00;18.13;;;12.02;;
55053;SDS011;40954;45.668;18.980;2023-01-05T13:10:38;23.17;;;13.50;;
55053;SDS011;40954;45.668;18.980;2023-01-05T13:15:35;14.88;;;9.90;;
55053;SDS011;40954;45.668;18.980;2023-01-05T13:18:06;18.13;;;11.82;;
55053;SDS011;40954;45.668;18.980;2023-01-05T13:20:41;12.18;;;9.50;;
55053;SDS011;40954;45.668;18.980;2023-01-05T13:23:22;12.30;;;10.00;;
55053;SDS011;40954;45.668;18.980;2023-01-05T13:25:52;17.00;;;12.30;;
55053;SDS011;40954;45.668;18.980;2023-01-05T13:28:21;13.57;;;10.73;;
55053;SDS011;40954;45.668;18.980;2023-01-05T13:54:18;13.77;;;9.98;;
55053;SDS011;40954;45.668;18.980;2023-01-05T13:56:49;11.20;;;8.90;;
55053;SDS011;40954;45.668;18.980;2023-01-05T13:59:20;15.30;;;11.55;;
55053;SDS011;40954;45.668;18.980;2023-01-05T14:01:49;14.07;;;10.93;;
55053;SDS011;40954;45.668;18.980;2023-01-05T14:04:16;13.75;;;9.10;;
55053;SDS011;40954;45.668;18.980;2023-01-05T14:06:48;12.40;;;9.38;;
55053;SDS011;40954;45.668;18.980;2023-01-05T14:09:38;39.10;;;22.52;;
55053;SDS011;40954;45.668;18.980;2023-01-05T14:22:56;12.88;;;10.10;;
55053;SDS011;40954;45.668;18.980;2023-01-05T14:28:16;19.30;;;12.75;;
55053;SDS011;40954;45.668;18.980;2023-01-05T14:30:43;13.52;;;10.23;;
55053;SDS011;40954;45.668;18.980;2023-01-05T14:33:09;17.58;;;12.95;;
55053;SDS011;40954;45.668;18.980;2023-01-05T14:35:34;12.55;;;10.10;;
55053;SDS011;40954;45.668;18.980;2023-01-05T14:38:03;13.43;;;10.73;;
55053;SDS011;40954;45.668;18.980;2023-01-05T14:40:39;13.70;;;8.88;;
55053;SDS011;40954;45.668;18.980;2023-01-05T14:45:55;14.90;;;10.15;;
55053;SDS011;40954;45.668;18.980;2023-01-05T14:51:24;13.95;;;9.77;;
55053;SDS011;40954;45.668;18.980;2023-01-05T14:53:55;14.25;;;10.80;;
55053;SDS011;40954;45.668;18.980;2023-01-05T14:56:26;16.00;;;11.48;;
55053;SDS011;40954;45.668;18.980;2023-01-05T14:58:54;15.82;;;11.65;;
55053;SDS011;40954;45.668;18.980;2023-01-05T15:01:36;21.33;;;14.32;;
55053;SDS011;40954;45.668;18.980;2023-01-05T15:04:13;28.67;;;19.60;;
55053;SDS011;40954;45.668;18.980;2023-01-05T15:06:49;24.10;;;16.50;;
55053;SDS011;40954;45.668;18.980;2023-01-05T15:14:42;17.17;;;12.13;;
55053;SDS011;40954;45.668;18.980;2023-01-05T15:30:01;27.15;;;19.13;;
55053;SDS011;40954;45.668;18.980;2023-01-05T15:32:29;29.35;;;22.23;;
55053;SDS011;40954;45.668;18.980;2023-01-05T15:35:08;26.45;;;19.45;;
55053;SDS011;40954;45.668;18.980;2023-01-05T15:37:37;24.27;;;16.95;;
55053;SDS011;40954;45.668;18.980;2023-01-05T15:40:05;19.70;;;13.75;;
55053;SDS011;40954;45.668;18.980;2023-01-05T15:42:37;21.40;;;14.95;;
55053;SDS011;40954;45.668;18.980;2023-01-05T15:45:03;21.63;;;16.23;;
55053;SDS011;40954;45.668;18.980;2023-01-05T15:47:30;23.60;;;15.63;;
55053;SDS011;40954;45.668;18.980;2023-01-05T15:50:00;26.30;;;17.05;;
55053;SDS011;40954;45.668;18.980;2023-01-05T15:52:33;18.35;;;13.50;;
55053;SDS011;40954;45.668;18.980;2023-01-05T15:55:09;22.02;;;15.18;;
55053;SDS011;40954;45.668;18.980;2023-01-05T15:57:36;35.20;;;20.27;;
55053;SDS011;40954;45.668;18.980;2023-01-05T16:00:13;31.80;;;17.75;;
55053;SDS011;40954;45.668;18.980;2023-01-05T16:02:40;48.42;;;20.02;;
55053;SDS011;40954;45.668;18.980;2023-01-05T16:05:07;30.38;;;16.90;;
55053;SDS011;40954;45.668;18.980;2023-01-05T16:07:33;25.63;;;15.25;;
55053;SDS011;40954;45.668;18.980;2023-01-05T16:09:59;25.02;;;14.50;;
55053;SDS011;40954;45.668;18.980;2023-01-05T16:12:25;30.98;;;15.80;;
55053;SDS011;40954;45.668;18.980;2023-01-05T16:14:55;51.55;;;20.08;;
55053;SDS011;40954;45.668;18.980;2023-01-05T16:17:25;43.75;;;18.55;;
55053;SDS011;40954;45.668;18.980;2023-01-05T16:19:54;22.10;;;15.15;;
55053;SDS011;40954;45.668;18.980;2023-01-05T16:22:27;18.48;;;13.00;;
55053;SDS011;40954;45.668;18.980;2023-01-05T16:27:23;24.15;;;14.85;;
55053;SDS011;40954;45.668;18.980;2023-01-05T16:29:49;14.90;;;11.68;;
55053;SDS011;40954;45.668;18.980;2023-01-05T16:34:51;18.15;;;14.00;;
55053;SDS011;40954;45.668;18.980;2023-01-05T16:37:36;24.05;;;15.23;;
55053;SDS011;40954;45.668;18.980;2023-01-05T16:40:02;24.92;;;16.13;;
55053;SDS011;40954;45.668;18.980;2023-01-05T16:42:29;28.83;;;19.10;;
55053;SDS011;40954;45.668;18.980;2023-01-05T16:48:14;33.42;;;21.67;;
55053;SDS011;40954;45.668;18.980;2023-01-05T16:50:52;35.75;;;23.15;;
55053;SDS011;40954;45.668;18.980;2023-01-05T16:53:19;46.28;;;28.33;;
55053;SDS011;40954;45.668;18.980;2023-01-05T16:55:45;50.00;;;31.80;;
55053;SDS011;40954;45.668;18.980;2023-01-05T17:03:39;66.00;;;39.85;;